sensor_id;sensor_type;location;lat;lon;timestamp;temperature;humidity
24254;DHT22;12381;51.152;4.172;2022-09-09T00:00:41;17.50;99.90
24254;DHT22;12381;51.152;4.172;2022-09-09T00:03:21;17.50;99.90
24254;DHT22;12381;51.152;4.172;2022-09-09T00:06:06;17.60;99.90
24254;DHT22;12381;51.152;4.172;2022-09-09T00:08:51;17.50;99.90
24254;DHT22;12381;51.152;4.172;2022-09-09T00:11:26;17.40;99.90
24254;DHT22;12381;51.152;4.172;2022-09-09T00:13:55;17.40;99.90
24254;DHT22;12381;51.152;4.172;2022-09-09T00:16:25;17.30;99.90
24254;DHT22;12381;51.152;4.172;2022-09-09T00:19:04;17.40;99.90
24254;DHT22;12381;51.152;4.172;2022-09-09T00:21:37;17.40;99.90
24254;DHT22;12381;51.152;4.172;2022-09-09T00:26:45;17.30;99.90
24254;DHT22;12381;51.152;4.172;2022-09-09T00:31:38;17.30;99.90
24254;DHT22;12381;51.152;4.172;2022-09-09T00:34:24;17.30;99.90
24254;DHT22;12381;51.152;4.172;2022-09-09T00:36:52;17.30;99.90
24254;DHT22;12381;51.152;4.172;2022-09-09T00:39:41;17.30;99.90
24254;DHT22;12381;51.152;4.172;2022-09-09T00:42:20;17.30;99.90
24254;DHT22;12381;51.152;4.172;2022-09-09T00:52:53;17.30;99.90
24254;DHT22;12381;51.152;4.172;2022-09-09T00:57:54;17.20;99.90
24254;DHT22;12381;51.152;4.172;2022-09-09T01:00:33;17.20;99.90
24254;DHT22;12381;51.152;4.172;2022-09-09T01:03:18;17.20;99.90
24254;DHT22;12381;51.152;4.172;2022-09-09T01:10:59;17.20;99.90
24254;DHT22;12381;51.152;4.172;2022-09-09T01:13:29;17.20;99.90
24254;DHT22;12381;51.152;4.172;2022-09-09T01:16:00;17.20;99.90
24254;DHT22;12381;51.152;4.172;2022-09-09T01:18:49;17.20;99.90
24254;DHT22;12381;51.152;4.172;2022-09-09T01:26:45;17.20;99.90
24254;DHT22;12381;51.152;4.172;2022-09-09T01:29:14;17.10;99.90
24254;DHT22;12381;51.152;4.172;2022-09-09T01:34:21;17.10;99.90
24254;DHT22;12381;51.152;4.172;2022-09-09T01:36:49;17.00;99.90
24254;DHT22;12381;51.152;4.172;2022-09-09T01:39:19;17.00;99.90
24254;DHT22;12381;51.152;4.172;2022-09-09T01:41:45;17.10;99.90
24254;DHT22;12381;51.152;4.172;2022-09-09T01:44:11;17.00;99.90
24254;DHT22;12381;51.152;4.172;2022-09-09T01:46:37;17.10;99.90
24254;DHT22;12381;51.152;4.172;2022-09-09T01:49:05;17.00;99.90
24254;DHT22;12381;51.152;4.172;2022-09-09T01:54:04;17.00;99.90
24254;DHT22;12381;51.152;4.172;2022-09-09T02:02:27;16.90;99.90
24254;DHT22;12381;51.152;4.172;2022-09-09T02:07:49;16.90;99.90
24254;DHT22;12381;51.152;4.172;2022-09-09T02:10:23;16.90;99.90
24254;DHT22;12381;51.152;4.172;2022-09-09T02:13:02;16.90;99.90
24254;DHT22;12381;51.152;4.172;2022-09-09T02:15:47;16.90;99.90
24254;DHT22;12381;51.152;4.172;2022-09-09T02:18:21;16.90;99.90
24254;DHT22;12381;51.152;4.172;2022-09-09T02:20:50;16.90;99.90
24254;DHT22;12381;51.152;4.172;2022-09-09T02:23:16;16.90;99.90
24254;DHT22;12381;51.152;4.172;2022-09-09T02:25:44;16.90;99.90
24254;DHT22;12381;51.152;4.172;2022-09-09T02:28:13;17.00;99.90
24254;DHT22;12381;51.152;4.172;2022-09-09T02:30:41;16.90;99.90
24254;DHT22;12381;51.152;4.172;2022-09-09T02:33:08;17.00;99.90
24254;DHT22;12381;51.152;4.172;2022-09-09T02:35:36;17.00;99.90
24254;DHT22;12381;51.152;4.172;2022-09-09T02:38:06;17.00;99.90
24254;DHT22;12381;51.152;4.172;2022-09-09T02:40:33;16.90;99.90
24254;DHT22;12381;51.152;4.172;2022-09-09T02:42:59;16.90;99.90
24254;DHT22;12381;51.152;4.172;2022-09-09T02:45:29;16.90;99.90
24254;DHT22;12381;51.152;4.172;2022-09-09T02:48:11;16.90;99.90
24254;DHT22;12381;51.152;4.172;2022-09-09T02:51:06;16.90;99.90
24254;DHT22;12381;51.152;4.172;2022-09-09T02:53:41;16.90;99.90
24254;DHT22;12381;51.152;4.172;2022-09-09T02:56:14;17.00;99.90
24254;DHT22;12381;51.152;4.172;2022-09-09T02:58:41;17.00;99.90
24254;DHT22;12381;51.152;4.172;2022-09-09T03:01:07;17.00;99.90
24254;DHT22;12381;51.152;4.172;2022-09-09T03:03:34;17.00;99.90
24254;DHT22;12381;51.152;4.172;2022-09-09T03:06:00;17.00;99.90
24254;DHT22;12381;51.152;4.172;2022-09-09T03:08:26;17.00;99.90
24254;DHT22;12381;51.152;4.172;2022-09-09T03:10:54;17.00;99.90
24254;DHT22;12381;51.152;4.172;2022-09-09T03:13:19;17.20;99.90
24254;DHT22;12381;51.152;4.172;2022-09-09T03:15:45;17.20;99.90
24254;DHT22;12381;51.152;4.172;2022-09-09T03:18:10;17.20;99.90
24254;DHT22;12381;51.152;4.172;2022-09-09T03:20:36;17.20;99.90
24254;DHT22;12381;51.152;4.172;2022-09-09T03:23:02;17.20;99.90
24254;DHT22;12381;51.152;4.172;2022-09-09T03:25:28;17.20;99.90
24254;DHT22;12381;51.152;4.172;2022-09-09T03:27:54;17.30;99.90
24254;DHT22;12381;51.152;4.172;2022-09-09T03:30:27;17.30;99.90
24254;DHT22;12381;51.152;4.172;2022-09-09T03:32:53;17.40;99.90
24254;DHT22;12381;51.152;4.172;2022-09-09T03:35:18;17.30;99.90
24254;DHT22;12381;51.152;4.172;2022-09-09T03:37:44;17.30;99.90
24254;DHT22;12381;51.152;4.172;2022-09-09T03:40:10;17.30;99.90
24254;DHT22;12381;51.152;4.172;2022-09-09T03:42:37;17.30;99.90
24254;DHT22;12381;51.152;4.172;2022-09-09T03:45:04;17.30;99.90
24254;DHT22;12381;51.152;4.172;2022-09-09T03:47:30;17.30;99.90
24254;DHT22;12381;51.152;4.172;2022-09-09T03:49:55;17.20;99.90
24254;DHT22;12381;51.152;4.172;2022-09-09T03:52:21;17.30;99.90
24254;DHT22;12381;51.152;4.172;2022-09-09T03:54:50;17.40;99.90
24254;DHT22;12381;51.152;4.172;2022-09-09T03:57:16;17.50;99.90
24254;DHT22;12381;51.152;4.172;2022-09-09T03:59:43;17.40;99.90
24254;DHT22;12381;51.152;4.172;2022-09-09T04:02:09;17.30;99.90
24254;DHT22;12381;51.152;4.172;2022-09-09T04:04:35;17.30;99.90
24254;DHT22;12381;51.152;4.172;2022-09-09T04:07:00;17.30;99.90
24254;DHT22;12381;51.152;4.172;2022-09-09T04:09:26;17.20;99.90
24254;DHT22;12381;51.152;4.172;2022-09-09T04:11:52;17.30;99.90
24254;DHT22;12381;51.152;4.172;2022-09-09T04:14:20;17.20;99.90
24254;DHT22;12381;51.152;4.172;2022-09-09T04:16:45;17.30;99.90
24254;DHT22;12381;51.152;4.172;2022-09-09T04:19:12;17.20;99.90
24254;DHT22;12381;51.152;4.172;2022-09-09T04:21:42;17.20;99.90
24254;DHT22;12381;51.152;4.172;2022-09-09T04:24:08;17.20;99.90
24254;DHT22;12381;51.152;4.172;2022-09-09T04:26:35;17.20;99.90
24254;DHT22;12381;51.152;4.172;2022-09-09T04:29:03;17.10;99.90
24254;DHT22;12381;51.152;4.172;2022-09-09T04:31:29;17.10;99.90
24254;DHT22;12381;51.152;4.172;2022-09-09T04:33:55;17.20;99.90
24254;DHT22;12381;51.152;4.172;2022-09-09T04:36:20;17.20;99.90
24254;DHT22;12381;51.152;4.172;2022-09-09T04:38:46;17.20;99.90
24254;DHT22;12381;51.152;4.172;2022-09-09T04:41:14;17.20;99.90
24254;DHT22;12381;51.152;4.172;2022-09-09T04:43:40;17.20;99.90
24254;DHT22;12381;51.152;4.172;2022-09-09T04:46:06;17.20;99.90
24254;DHT22;12381;51.152;4.172;2022-09-09T04:48:32;17.20;99.90
24254;DHT22;12381;51.152;4.172;2022-09-09T04:51:08;17.20;99.90
24254;DHT22;12381;51.152;4.172;2022-09-09T04:53:35;17.20;99.90
24254;DHT22;12381;51.152;4.172;2022-09-09T04:56:13;17.20;99.90
24254;DHT22;12381;51.152;4.172;2022-09-09T04:58:40;17.20;99.90
24254;DHT22;12381;51.152;4.172;2022-09-09T05:01:11;17.20;99.90
24254;DHT22;12381;51.152;4.172;2022-09-09T05:03:37;17.20;99.90
24254;DHT22;12381;51.152;4.172;2022-09-09T05:06:15;17.10;99.90
24254;DHT22;12381;51.152;4.172;2022-09-09T05:08:42;17.10;99.90
24254;DHT22;12381;51.152;4.172;2022-09-09T05:13:51;17.20;99.90
24254;DHT22;12381;51.152;4.172;2022-09-09T05:16:18;17.20;99.90
24254;DHT22;12381;51.152;4.172;2022-09-09T05:18:45;17.20;99.90
24254;DHT22;12381;51.152;4.172;2022-09-09T05:21:16;17.20;99.90
24254;DHT22;12381;51.152;4.172;2022-09-09T05:23:42;17.30;99.90
24254;DHT22;12381;51.152;4.172;2022-09-09T05:26:12;17.30;99.90
24254;DHT22;12381;51.152;4.172;2022-09-09T05:28:39;17.30;99.90
24254;DHT22;12381;51.152;4.172;2022-09-09T05:31:06;17.30;99.90
24254;DHT22;12381;51.152;4.172;2022-09-09T05:33:37;17.40;99.90
24254;DHT22;12381;51.152;4.172;2022-09-09T05:36:08;17.50;99.90
24254;DHT22;12381;51.152;4.172;2022-09-09T05:38:36;17.50;99.90
24254;DHT22;12381;51.152;4.172;2022-09-09T05:41:03;17.50;99.90
24254;DHT22;12381;51.152;4.172;2022-09-09T05:43:29;17.50;99.90
24254;DHT22;12381;51.152;4.172;2022-09-09T05:48:30;17.50;99.90
24254;DHT22;12381;51.152;4.172;2022-09-09T05:50:56;17.60;99.90
24254;DHT22;12381;51.152;4.172;2022-09-09T05:53:22;17.50;99.90
24254;DHT22;12381;51.152;4.172;2022-09-09T05:55:47;17.50;99.90
24254;DHT22;12381;51.152;4.172;2022-09-09T05:58:13;17.50;99.90
24254;DHT22;12381;51.152;4.172;2022-09-09T06:00:40;17.60;99.90
24254;DHT22;12381;51.152;4.172;2022-09-09T06:03:06;17.60;99.90
24254;DHT22;12381;51.152;4.172;2022-09-09T06:05:32;17.60;99.90
24254;DHT22;12381;51.152;4.172;2022-09-09T06:07:59;17.60;99.90
24254;DHT22;12381;51.152;4.172;2022-09-09T06:10:24;17.70;99.90
24254;DHT22;12381;51.152;4.172;2022-09-09T06:12:52;17.70;99.90
24254;DHT22;12381;51.152;4.172;2022-09-09T06:15:18;17.70;99.90
24254;DHT22;12381;51.152;4.172;2022-09-09T06:17:43;17.70;99.90
24254;DHT22;12381;51.152;4.172;2022-09-09T06:20:10;17.70;99.90
24254;DHT22;12381;51.152;4.172;2022-09-09T06:22:39;17.80;99.90
24254;DHT22;12381;51.152;4.172;2022-09-09T06:25:07;17.70;99.90
24254;DHT22;12381;51.152;4.172;2022-09-09T06:27:38;17.70;99.90
24254;DHT22;12381;51.152;4.172;2022-09-09T06:30:04;17.70;99.90
24254;DHT22;12381;51.152;4.172;2022-09-09T06:32:30;17.70;99.90
24254;DHT22;12381;51.152;4.172;2022-09-09T06:34:55;17.80;99.90
24254;DHT22;12381;51.152;4.172;2022-09-09T06:37:21;17.90;99.90
24254;DHT22;12381;51.152;4.172;2022-09-09T06:39:49;17.90;99.90
24254;DHT22;12381;51.152;4.172;2022-09-09T06:42:16;18.00;99.90
24254;DHT22;12381;51.152;4.172;2022-09-09T06:44:41;17.90;99.90
24254;DHT22;12381;51.152;4.172;2022-09-09T06:47:13;18.00;99.90
24254;DHT22;12381;51.152;4.172;2022-09-09T06:49:38;18.00;99.90
24254;DHT22;12381;51.152;4.172;2022-09-09T06:52:04;18.10;99.90
24254;DHT22;12381;51.152;4.172;2022-09-09T06:54:30;18.10;99.90
24254;DHT22;12381;51.152;4.172;2022-09-09T06:56:55;18.20;99.90
24254;DHT22;12381;51.152;4.172;2022-09-09T06:59:21;18.20;99.90
24254;DHT22;12381;51.152;4.172;2022-09-09T07:01:47;18.20;99.90
24254;DHT22;12381;51.152;4.172;2022-09-09T07:04:13;18.20;99.90
24254;DHT22;12381;51.152;4.172;2022-09-09T07:06:41;18.20;99.90
24254;DHT22;12381;51.152;4.172;2022-09-09T07:09:11;18.20;99.90
24254;DHT22;12381;51.152;4.172;2022-09-09T07:11:45;18.20;99.90
24254;DHT22;12381;51.152;4.172;2022-09-09T07:14:12;18.20;99.90
24254;DHT22;12381;51.152;4.172;2022-09-09T07:16:39;18.20;99.90
24254;DHT22;12381;51.152;4.172;2022-09-09T07:19:05;18.20;99.90
24254;DHT22;12381;51.152;4.172;2022-09-09T07:21:32;18.20;99.90
24254;DHT22;12381;51.152;4.172;2022-09-09T07:23:58;18.20;99.90
24254;DHT22;12381;51.152;4.172;2022-09-09T07:26:27;18.20;99.90
24254;DHT22;12381;51.152;4.172;2022-09-09T07:28:53;18.20;99.90
24254;DHT22;12381;51.152;4.172;2022-09-09T07:31:22;18.20;99.90
24254;DHT22;12381;51.152;4.172;2022-09-09T07:33:48;18.30;99.90
24254;DHT22;12381;51.152;4.172;2022-09-09T07:36:22;18.30;99.90
24254;DHT22;12381;51.152;4.172;2022-09-09T07:38:53;18.40;99.90
24254;DHT22;12381;51.152;4.172;2022-09-09T07:41:25;18.50;99.90
24254;DHT22;12381;51.152;4.172;2022-09-09T07:43:51;18.50;99.90
24254;DHT22;12381;51.152;4.172;2022-09-09T07:46:21;18.50;99.90
24254;DHT22;12381;51.152;4.172;2022-09-09T07:48:55;18.50;99.90
24254;DHT22;12381;51.152;4.172;2022-09-09T07:51:22;18.60;99.90
24254;DHT22;12381;51.152;4.172;2022-09-09T07:53:51;18.60;99.90
24254;DHT22;12381;51.152;4.172;2022-09-09T07:56:18;18.60;99.90
24254;DHT22;12381;51.152;4.172;2022-09-09T07:58:47;18.60;99.90
24254;DHT22;12381;51.152;4.172;2022-09-09T08:01:15;18.60;99.90
24254;DHT22;12381;51.152;4.172;2022-09-09T08:03:44;18.60;99.90
24254;DHT22;12381;51.152;4.172;2022-09-09T08:06:11;18.60;99.90
24254;DHT22;12381;51.152;4.172;2022-09-09T08:08:38;18.70;99.90
24254;DHT22;12381;51.152;4.172;2022-09-09T08:11:13;18.70;99.90
24254;DHT22;12381;51.152;4.172;2022-09-09T08:13:43;18.70;99.90
24254;DHT22;12381;51.152;4.172;2022-09-09T08:16:15;18.70;99.90
24254;DHT22;12381;51.152;4.172;2022-09-09T08:18:41;18.70;99.90
24254;DHT22;12381;51.152;4.172;2022-09-09T08:21:09;18.80;99.90
24254;DHT22;12381;51.152;4.172;2022-09-09T08:23:38;18.90;99.90
24254;DHT22;12381;51.152;4.172;2022-09-09T08:26:11;18.90;99.90
24254;DHT22;12381;51.152;4.172;2022-09-09T08:28:37;18.90;99.90
24254;DHT22;12381;51.152;4.172;2022-09-09T08:31:23;18.90;99.90
24254;DHT22;12381;51.152;4.172;2022-09-09T08:33:50;18.90;99.90
24254;DHT22;12381;51.152;4.172;2022-09-09T08:36:23;18.90;99.90
24254;DHT22;12381;51.152;4.172;2022-09-09T08:38:54;18.90;99.90
24254;DHT22;12381;51.152;4.172;2022-09-09T08:58:19;18.70;99.90
24254;DHT22;12381;51.152;4.172;2022-09-09T09:11:51;18.70;99.90
24254;DHT22;12381;51.152;4.172;2022-09-09T09:14:24;18.60;99.90
24254;DHT22;12381;51.152;4.172;2022-09-09T09:19:24;18.60;99.90
24254;DHT22;12381;51.152;4.172;2022-09-09T09:27:30;18.50;99.90
24254;DHT22;12381;51.152;4.172;2022-09-09T09:29:59;18.50;99.90
24254;DHT22;12381;51.152;4.172;2022-09-09T09:32:28;18.60;99.90
24254;DHT22;12381;51.152;4.172;2022-09-09T09:34:57;18.50;99.90
24254;DHT22;12381;51.152;4.172;2022-09-09T09:37:33;18.40;99.90
24254;DHT22;12381;51.152;4.172;2022-09-09T09:40:14;18.50;99.90
24254;DHT22;12381;51.152;4.172;2022-09-09T09:45:40;18.60;99.90
24254;DHT22;12381;51.152;4.172;2022-09-09T09:48:15;18.60;99.90
24254;DHT22;12381;51.152;4.172;2022-09-09T09:51:00;18.60;99.90
24254;DHT22;12381;51.152;4.172;2022-09-09T09:53:30;18.50;99.90
24254;DHT22;12381;51.152;4.172;2022-09-09T09:56:05;18.50;99.90
24254;DHT22;12381;51.152;4.172;2022-09-09T09:58:52;18.50;99.90
24254;DHT22;12381;51.152;4.172;2022-09-09T10:01:29;18.50;99.90
24254;DHT22;12381;51.152;4.172;2022-09-09T10:04:13;18.60;99.90
24254;DHT22;12381;51.152;4.172;2022-09-09T10:06:40;18.70;99.90
24254;DHT22;12381;51.152;4.172;2022-09-09T10:22:39;18.80;99.90
24254;DHT22;12381;51.152;4.172;2022-09-09T10:39:18;18.90;99.90
24254;DHT22;12381;51.152;4.172;2022-09-09T10:47:20;19.00;99.90
24254;DHT22;12381;51.152;4.172;2022-09-09T10:53:08;19.20;99.90
24254;DHT22;12381;51.152;4.172;2022-09-09T10:55:51;19.10;99.90
24254;DHT22;12381;51.152;4.172;2022-09-09T10:59:02;19.10;99.90
24254;DHT22;12381;51.152;4.172;2022-09-09T11:01:22;19.10;99.90
24254;DHT22;12381;51.152;4.172;2022-09-09T11:04:05;19.20;99.90
24254;DHT22;12381;51.152;4.172;2022-09-09T11:06:44;19.20;99.90
24254;DHT22;12381;51.152;4.172;2022-09-09T11:09:16;19.40;99.90
24254;DHT22;12381;51.152;4.172;2022-09-09T11:11:53;19.30;99.90
24254;DHT22;12381;51.152;4.172;2022-09-09T11:17:01;19.20;99.90
24254;DHT22;12381;51.152;4.172;2022-09-09T11:19:34;19.40;99.90
24254;DHT22;12381;51.152;4.172;2022-09-09T11:22:04;19.30;99.90
24254;DHT22;12381;51.152;4.172;2022-09-09T11:24:41;19.40;99.90
24254;DHT22;12381;51.152;4.172;2022-09-09T11:27:24;19.50;99.90
24254;DHT22;12381;51.152;4.172;2022-09-09T11:38:09;19.80;99.90
24254;DHT22;12381;51.152;4.172;2022-09-09T11:40:40;19.90;99.90
24254;DHT22;12381;51.152;4.172;2022-09-09T11:45:40;20.00;99.90
24254;DHT22;12381;51.152;4.172;2022-09-09T11:48:35;20.00;99.90
24254;DHT22;12381;51.152;4.172;2022-09-09T11:51:10;20.00;99.90
24254;DHT22;12381;51.152;4.172;2022-09-09T11:53:48;20.00;99.90
24254;DHT22;12381;51.152;4.172;2022-09-09T11:56:25;20.20;99.90
24254;DHT22;12381;51.152;4.172;2022-09-09T11:59:26;20.20;99.90
24254;DHT22;12381;51.152;4.172;2022-09-09T12:10:04;20.20;99.90
24254;DHT22;12381;51.152;4.172;2022-09-09T12:12:37;20.20;99.90
24254;DHT22;12381;51.152;4.172;2022-09-09T12:17:47;20.60;99.90
24254;DHT22;12381;51.152;4.172;2022-09-09T12:20:51;20.70;99.90
24254;DHT22;12381;51.152;4.172;2022-09-09T12:30:58;20.30;99.90
24254;DHT22;12381;51.152;4.172;2022-09-09T12:33:37;20.30;99.90
24254;DHT22;12381;51.152;4.172;2022-09-09T12:36:29;20.20;99.90
24254;DHT22;12381;51.152;4.172;2022-09-09T12:38:59;20.20;99.90
24254;DHT22;12381;51.152;4.172;2022-09-09T12:41:36;20.20;99.90
24254;DHT22;12381;51.152;4.172;2022-09-09T12:44:06;20.40;99.90
24254;DHT22;12381;51.152;4.172;2022-09-09T12:46:41;20.60;99.90
24254;DHT22;12381;51.152;4.172;2022-09-09T12:49:34;20.80;99.90
24254;DHT22;12381;51.152;4.172;2022-09-09T12:52:07;21.00;99.90
24254;DHT22;12381;51.152;4.172;2022-09-09T12:54:36;21.20;99.90
24254;DHT22;12381;51.152;4.172;2022-09-09T12:57:02;21.30;99.90
24254;DHT22;12381;51.152;4.172;2022-09-09T12:59:42;21.40;99.90
24254;DHT22;12381;51.152;4.172;2022-09-09T13:02:23;21.40;99.90
24254;DHT22;12381;51.152;4.172;2022-09-09T13:04:53;21.40;99.90
24254;DHT22;12381;51.152;4.172;2022-09-09T13:07:20;21.30;99.90
24254;DHT22;12381;51.152;4.172;2022-09-09T13:09:47;21.20;99.90
24254;DHT22;12381;51.152;4.172;2022-09-09T13:12:19;21.20;99.90
24254;DHT22;12381;51.152;4.172;2022-09-09T13:14:49;21.30;99.90
24254;DHT22;12381;51.152;4.172;2022-09-09T13:17:24;21.40;99.90
24254;DHT22;12381;51.152;4.172;2022-09-09T13:19:52;21.50;99.90
24254;DHT22;12381;51.152;4.172;2022-09-09T13:22:35;21.40;99.90
24254;DHT22;12381;51.152;4.172;2022-09-09T13:25:06;21.40;99.90
24254;DHT22;12381;51.152;4.172;2022-09-09T13:27:38;21.30;99.90
24254;DHT22;12381;51.152;4.172;2022-09-09T13:30:24;21.30;99.90
24254;DHT22;12381;51.152;4.172;2022-09-09T13:33:20;21.30;99.90
24254;DHT22;12381;51.152;4.172;2022-09-09T13:35:50;21.20;99.90
24254;DHT22;12381;51.152;4.172;2022-09-09T13:38:17;21.30;99.90
24254;DHT22;12381;51.152;4.172;2022-09-09T13:41:18;21.30;99.90
24254;DHT22;12381;51.152;4.172;2022-09-09T13:43:47;21.20;99.90
24254;DHT22;12381;51.152;4.172;2022-09-09T13:51:43;21.30;99.90
24254;DHT22;12381;51.152;4.172;2022-09-09T13:54:13;21.20;99.90
24254;DHT22;12381;51.152;4.172;2022-09-09T13:56:40;21.20;99.90
24254;DHT22;12381;51.152;4.172;2022-09-09T13:59:11;21.20;99.90
24254;DHT22;12381;51.152;4.172;2022-09-09T14:01:37;21.40;99.90
24254;DHT22;12381;51.152;4.172;2022-09-09T14:04:03;21.50;99.90
24254;DHT22;12381;51.152;4.172;2022-09-09T14:06:30;21.50;99.90
24254;DHT22;12381;51.152;4.172;2022-09-09T14:08:57;21.60;99.90
24254;DHT22;12381;51.152;4.172;2022-09-09T14:11:23;21.80;99.90
24254;DHT22;12381;51.152;4.172;2022-09-09T14:13:51;22.00;99.90
24254;DHT22;12381;51.152;4.172;2022-09-09T14:16:17;21.90;99.90
24254;DHT22;12381;51.152;4.172;2022-09-09T14:18:44;21.70;99.90
24254;DHT22;12381;51.152;4.172;2022-09-09T14:21:10;21.70;99.90
24254;DHT22;12381;51.152;4.172;2022-09-09T14:23:36;21.60;99.90
24254;DHT22;12381;51.152;4.172;2022-09-09T14:26:07;21.60;99.90
24254;DHT22;12381;51.152;4.172;2022-09-09T14:28:33;21.50;99.90
24254;DHT22;12381;51.152;4.172;2022-09-09T14:31:00;21.50;99.90
24254;DHT22;12381;51.152;4.172;2022-09-09T14:33:26;21.70;99.90
24254;DHT22;12381;51.152;4.172;2022-09-09T14:35:57;21.90;99.90
24254;DHT22;12381;51.152;4.172;2022-09-09T14:38:23;22.10;99.90
24254;DHT22;12381;51.152;4.172;2022-09-09T14:40:49;22.00;99.90
24254;DHT22;12381;51.152;4.172;2022-09-09T14:43:14;21.80;99.90
24254;DHT22;12381;51.152;4.172;2022-09-09T14:45:40;21.70;99.90
24254;DHT22;12381;51.152;4.172;2022-09-09T14:48:06;21.70;99.90
24254;DHT22;12381;51.152;4.172;2022-09-09T14:50:34;21.60;99.90
24254;DHT22;12381;51.152;4.172;2022-09-09T14:53:05;21.60;99.90
24254;DHT22;12381;51.152;4.172;2022-09-09T14:55:31;21.50;99.90
24254;DHT22;12381;51.152;4.172;2022-09-09T14:57:56;21.40;99.90
24254;DHT22;12381;51.152;4.172;2022-09-09T15:00:22;21.50;99.90
24254;DHT22;12381;51.152;4.172;2022-09-09T15:02:51;21.50;99.90
24254;DHT22;12381;51.152;4.172;2022-09-09T15:05:17;21.50;99.90
24254;DHT22;12381;51.152;4.172;2022-09-09T15:07:42;21.60;99.90
24254;DHT22;12381;51.152;4.172;2022-09-09T15:10:08;21.60;99.90
24254;DHT22;12381;51.152;4.172;2022-09-09T15:12:34;21.50;99.90
24254;DHT22;12381;51.152;4.172;2022-09-09T15:15:00;21.30;99.90
24254;DHT22;12381;51.152;4.172;2022-09-09T15:17:29;21.30;99.90
24254;DHT22;12381;51.152;4.172;2022-09-09T15:19:55;21.30;99.90
24254;DHT22;12381;51.152;4.172;2022-09-09T15:22:21;21.20;99.90
24254;DHT22;12381;51.152;4.172;2022-09-09T15:24:46;21.20;99.90
24254;DHT22;12381;51.152;4.172;2022-09-09T15:27:12;21.20;99.90
24254;DHT22;12381;51.152;4.172;2022-09-09T15:29:40;21.20;99.90
24254;DHT22;12381;51.152;4.172;2022-09-09T15:32:06;21.00;99.90
24254;DHT22;12381;51.152;4.172;2022-09-09T15:34:32;21.00;99.90
24254;DHT22;12381;51.152;4.172;2022-09-09T15:36:58;20.80;99.90
24254;DHT22;12381;51.152;4.172;2022-09-09T15:39:25;20.70;99.90
24254;DHT22;12381;51.152;4.172;2022-09-09T15:41:51;20.70;99.90
24254;DHT22;12381;51.152;4.172;2022-09-09T15:44:17;20.60;99.90
24254;DHT22;12381;51.152;4.172;2022-09-09T15:46:53;20.60;99.90
24254;DHT22;12381;51.152;4.172;2022-09-09T15:49:24;20.50;99.90
24254;DHT22;12381;51.152;4.172;2022-09-09T15:51:58;20.40;99.90
24254;DHT22;12381;51.152;4.172;2022-09-09T15:54:31;20.40;99.90
24254;DHT22;12381;51.152;4.172;2022-09-09T15:57:00;20.30;99.90
24254;DHT22;12381;51.152;4.172;2022-09-09T15:59:31;20.20;99.90
24254;DHT22;12381;51.152;4.172;2022-09-09T16:01:57;20.10;99.90
24254;DHT22;12381;51.152;4.172;2022-09-09T16:04:25;20.00;99.90
24254;DHT22;12381;51.152;4.172;2022-09-09T16:07:12;20.00;99.90
24254;DHT22;12381;51.152;4.172;2022-09-09T16:09:38;20.00;99.90
24254;DHT22;12381;51.152;4.172;2022-09-09T16:12:05;20.00;99.90
24254;DHT22;12381;51.152;4.172;2022-09-09T16:14:39;20.00;99.90
24254;DHT22;12381;51.152;4.172;2022-09-09T16:17:05;20.00;99.90
24254;DHT22;12381;51.152;4.172;2022-09-09T16:19:38;19.80;99.90
24254;DHT22;12381;51.152;4.172;2022-09-09T16:22:07;19.80;99.90
24254;DHT22;12381;51.152;4.172;2022-09-09T16:24:33;19.80;99.90
24254;DHT22;12381;51.152;4.172;2022-09-09T16:26:59;19.80;99.90
24254;DHT22;12381;51.152;4.172;2022-09-09T16:29:28;19.80;99.90
24254;DHT22;12381;51.152;4.172;2022-09-09T16:31:55;19.80;99.90
24254;DHT22;12381;51.152;4.172;2022-09-09T16:34:22;19.80;99.90
24254;DHT22;12381;51.152;4.172;2022-09-09T16:36:48;19.80;99.90
24254;DHT22;12381;51.152;4.172;2022-09-09T16:39:18;19.80;99.90
24254;DHT22;12381;51.152;4.172;2022-09-09T16:44:19;19.80;99.90
24254;DHT22;12381;51.152;4.172;2022-09-09T16:46:55;19.80;99.90
24254;DHT22;12381;51.152;4.172;2022-09-09T16:49:21;19.80;99.90
24254;DHT22;12381;51.152;4.172;2022-09-09T16:51:49;19.80;99.90
24254;DHT22;12381;51.152;4.172;2022-09-09T16:54:18;19.90;99.90
24254;DHT22;12381;51.152;4.172;2022-09-09T16:56:45;19.80;99.90
24254;DHT22;12381;51.152;4.172;2022-09-09T16:59:21;19.80;99.90
24254;DHT22;12381;51.152;4.172;2022-09-09T17:01:49;20.00;99.90
24254;DHT22;12381;51.152;4.172;2022-09-09T17:04:18;19.90;99.90
24254;DHT22;12381;51.152;4.172;2022-09-09T17:06:48;19.80;99.90
24254;DHT22;12381;51.152;4.172;2022-09-09T17:09:15;19.80;99.90
24254;DHT22;12381;51.152;4.172;2022-09-09T17:11:41;19.80;99.90
24254;DHT22;12381;51.152;4.172;2022-09-09T17:14:12;19.70;99.90
24254;DHT22;12381;51.152;4.172;2022-09-09T17:16:38;19.70;99.90
24254;DHT22;12381;51.152;4.172;2022-09-09T17:19:05;19.70;99.90
24254;DHT22;12381;51.152;4.172;2022-09-09T17:21:32;19.70;99.90
24254;DHT22;12381;51.152;4.172;2022-09-09T17:23:58;19.70;99.90
24254;DHT22;12381;51.152;4.172;2022-09-09T17:26:27;19.70;99.90
24254;DHT22;12381;51.152;4.172;2022-09-09T17:28:54;19.70;99.90
24254;DHT22;12381;51.152;4.172;2022-09-09T17:31:25;19.70;99.90
24254;DHT22;12381;51.152;4.172;2022-09-09T17:33:51;19.80;99.90
24254;DHT22;12381;51.152;4.172;2022-09-09T17:36:32;19.80;99.90
24254;DHT22;12381;51.152;4.172;2022-09-09T17:38:59;19.70;99.90
24254;DHT22;12381;51.152;4.172;2022-09-09T17:41:31;19.60;99.90
24254;DHT22;12381;51.152;4.172;2022-09-09T17:43:57;19.60;99.90
24254;DHT22;12381;51.152;4.172;2022-09-09T17:46:29;19.50;99.90
24254;DHT22;12381;51.152;4.172;2022-09-09T17:48:58;19.50;99.90
24254;DHT22;12381;51.152;4.172;2022-09-09T17:51:26;19.50;99.90
24254;DHT22;12381;51.152;4.172;2022-09-09T17:54:03;19.50;99.90
24254;DHT22;12381;51.152;4.172;2022-09-09T17:56:31;19.40;99.90
24254;DHT22;12381;51.152;4.172;2022-09-09T17:58:58;19.30;99.90
24254;DHT22;12381;51.152;4.172;2022-09-09T18:01:29;19.30;99.90
24254;DHT22;12381;51.152;4.172;2022-09-09T18:03:58;19.30;99.90
24254;DHT22;12381;51.152;4.172;2022-09-09T18:06:27;19.50;99.90
24254;DHT22;12381;51.152;4.172;2022-09-09T18:08:59;19.40;99.90
24254;DHT22;12381;51.152;4.172;2022-09-09T18:11:31;19.40;99.90
24254;DHT22;12381;51.152;4.172;2022-09-09T18:14:03;19.40;99.90
24254;DHT22;12381;51.152;4.172;2022-09-09T18:16:32;19.20;99.90
24254;DHT22;12381;51.152;4.172;2022-09-09T18:19:00;19.30;99.90
24254;DHT22;12381;51.152;4.172;2022-09-09T18:21:30;19.30;99.90
24254;DHT22;12381;51.152;4.172;2022-09-09T18:24:04;19.30;99.90
24254;DHT22;12381;51.152;4.172;2022-09-09T18:26:31;19.40;99.90
24254;DHT22;12381;51.152;4.172;2022-09-09T18:29:00;19.20;99.90